sensor_id;sensor_type;location;lat;lon;timestamp;temperature;humidity
3976;DHT22;2002;48.812;9.180;2022-11-30T00:00:19;16.50;1.00
3976;DHT22;2002;48.812;9.180;2022-11-30T00:02:45;16.60;1.00
3976;DHT22;2002;48.812;9.180;2022-11-30T00:05:11;16.50;1.00
3976;DHT22;2002;48.812;9.180;2022-11-30T00:07:38;16.60;1.00
3976;DHT22;2002;48.812;9.180;2022-11-30T00:10:04;16.60;1.00
3976;DHT22;2002;48.812;9.180;2022-11-30T00:12:30;16.60;1.00
3976;DHT22;2002;48.812;9.180;2022-11-30T00:14:55;16.60;1.00
3976;DHT22;2002;48.812;9.180;2022-11-30T00:17:21;16.60;1.00
3976;DHT22;2002;48.812;9.180;2022-11-30T00:19:46;16.60;1.00
3976;DHT22;2002;48.812;9.180;2022-11-30T00:22:12;16.50;1.00
3976;DHT22;2002;48.812;9.180;2022-11-30T00:24:38;16.60;1.00
3976;DHT22;2002;48.812;9.180;2022-11-30T00:27:03;16.50;1.00
3976;DHT22;2002;48.812;9.180;2022-11-30T00:29:29;16.50;1.00
3976;DHT22;2002;48.812;9.180;2022-11-30T00:31:54;16.50;1.00
3976;DHT22;2002;48.812;9.180;2022-11-30T00:34:20;16.50;1.00
3976;DHT22;2002;48.812;9.180;2022-11-30T00:36:45;16.50;1.00
3976;DHT22;2002;48.812;9.180;2022-11-30T00:39:11;16.50;1.00
3976;DHT22;2002;48.812;9.180;2022-11-30T00:41:36;16.60;1.00
3976;DHT22;2002;48.812;9.180;2022-11-30T00:44:02;16.50;1.00
3976;DHT22;2002;48.812;9.180;2022-11-30T00:46:27;16.50;1.00
3976;DHT22;2002;48.812;9.180;2022-11-30T00:48:53;16.50;1.00
3976;DHT22;2002;48.812;9.180;2022-11-30T00:51:19;16.50;1.00
3976;DHT22;2002;48.812;9.180;2022-11-30T00:53:45;16.50;1.00
3976;DHT22;2002;48.812;9.180;2022-11-30T00:56:12;16.50;1.00
3976;DHT22;2002;48.812;9.180;2022-11-30T00:58:37;16.50;1.00
3976;DHT22;2002;48.812;9.180;2022-11-30T01:01:04;16.50;1.00
3976;DHT22;2002;48.812;9.180;2022-11-30T01:03:29;16.50;1.00
3976;DHT22;2002;48.812;9.180;2022-11-30T01:06:01;16.50;1.00
3976;DHT22;2002;48.812;9.180;2022-11-30T01:08:26;16.50;1.00
3976;DHT22;2002;48.812;9.180;2022-11-30T01:10:52;16.50;1.00
3976;DHT22;2002;48.812;9.180;2022-11-30T01:13:22;16.50;1.00
3976;DHT22;2002;48.812;9.180;2022-11-30T01:15:47;16.60;1.00
3976;DHT22;2002;48.812;9.180;2022-11-30T01:18:13;16.50;1.00
3976;DHT22;2002;48.812;9.180;2022-11-30T01:20:40;16.50;1.00
3976;DHT22;2002;48.812;9.180;2022-11-30T01:23:06;16.50;1.00
3976;DHT22;2002;48.812;9.180;2022-11-30T01:25:32;16.60;1.50
3976;DHT22;2002;48.812;9.180;2022-11-30T01:27:58;16.60;1.00
3976;DHT22;2002;48.812;9.180;2022-11-30T01:30:23;16.60;1.00
3976;DHT22;2002;48.812;9.180;2022-11-30T01:32:49;16.60;1.00
3976;DHT22;2002;48.812;9.180;2022-11-30T01:35:15;16.60;1.00
3976;DHT22;2002;48.812;9.180;2022-11-30T01:37:40;16.60;1.00
3976;DHT22;2002;48.812;9.180;2022-11-30T01:40:06;16.50;1.00
3976;DHT22;2002;48.812;9.180;2022-11-30T01:42:32;16.50;1.00
3976;DHT22;2002;48.812;9.180;2022-11-30T01:44:59;16.50;1.00
3976;DHT22;2002;48.812;9.180;2022-11-30T01:47:41;16.50;1.00
3976;DHT22;2002;48.812;9.180;2022-11-30T01:50:17;16.50;1.00
3976;DHT22;2002;48.812;9.180;2022-11-30T01:52:49;16.50;1.00
3976;DHT22;2002;48.812;9.180;2022-11-30T01:55:25;16.50;1.00
3976;DHT22;2002;48.812;9.180;2022-11-30T01:57:56;16.50;1.00
3976;DHT22;2002;48.812;9.180;2022-11-30T02:00:22;16.50;1.00
3976;DHT22;2002;48.812;9.180;2022-11-30T02:03:15;16.50;1.00
3976;DHT22;2002;48.812;9.180;2022-11-30T02:05:39;16.50;6.70
3976;DHT22;2002;48.812;9.180;2022-11-30T02:08:06;16.50;1.00
3976;DHT22;2002;48.812;9.180;2022-11-30T02:10:34;16.50;1.00
3976;DHT22;2002;48.812;9.180;2022-11-30T02:13:19;16.50;1.00
3976;DHT22;2002;48.812;9.180;2022-11-30T02:18:54;16.50;1.00
3976;DHT22;2002;48.812;9.180;2022-11-30T02:24:12;16.50;1.00
3976;DHT22;2002;48.812;9.180;2022-11-30T02:27:13;16.50;1.00
3976;DHT22;2002;48.812;9.180;2022-11-30T02:29:51;16.50;1.00
3976;DHT22;2002;48.812;9.180;2022-11-30T02:32:48;16.50;1.00
3976;DHT22;2002;48.812;9.180;2022-11-30T02:35:20;16.50;1.00
3976;DHT22;2002;48.812;9.180;2022-11-30T02:37:47;16.50;1.00
3976;DHT22;2002;48.812;9.180;2022-11-30T02:40:16;16.50;1.00
3976;DHT22;2002;48.812;9.180;2022-11-30T02:42:42;16.50;1.00
3976;DHT22;2002;48.812;9.180;2022-11-30T02:45:08;16.50;1.00
3976;DHT22;2002;48.812;9.180;2022-11-30T02:50:25;16.50;1.00
3976;DHT22;2002;48.812;9.180;2022-11-30T02:52:52;16.60;1.00
3976;DHT22;2002;48.812;9.180;2022-11-30T02:55:19;16.50;1.00
3976;DHT22;2002;48.812;9.180;2022-11-30T02:57:45;16.50;1.00
3976;DHT22;2002;48.812;9.180;2022-11-30T03:00:12;16.50;1.00
3976;DHT22;2002;48.812;9.180;2022-11-30T03:02:38;16.50;1.00
3976;DHT22;2002;48.812;9.180;2022-11-30T03:05:04;16.60;1.00
3976;DHT22;2002;48.812;9.180;2022-11-30T03:07:30;16.50;1.00
3976;DHT22;2002;48.812;9.180;2022-11-30T03:09:57;16.50;1.00
3976;DHT22;2002;48.812;9.180;2022-11-30T03:12:22;16.50;1.00
3976;DHT22;2002;48.812;9.180;2022-11-30T03:14:48;16.50;1.00
3976;DHT22;2002;48.812;9.180;2022-11-30T03:17:14;16.50;1.00
3976;DHT22;2002;48.812;9.180;2022-11-30T03:19:39;16.50;1.00
3976;DHT22;2002;48.812;9.180;2022-11-30T03:22:05;16.50;1.00
3976;DHT22;2002;48.812;9.180;2022-11-30T03:24:30;16.50;1.00
3976;DHT22;2002;48.812;9.180;2022-11-30T03:26:56;16.50;1.00
3976;DHT22;2002;48.812;9.180;2022-11-30T03:29:21;16.50;1.00
3976;DHT22;2002;48.812;9.180;2022-11-30T03:31:47;16.50;1.00
3976;DHT22;2002;48.812;9.180;2022-11-30T03:34:12;16.50;1.00
3976;DHT22;2002;48.812;9.180;2022-11-30T03:36:38;16.50;1.00
3976;DHT22;2002;48.812;9.180;2022-11-30T03:39:04;16.40;1.00
3976;DHT22;2002;48.812;9.180;2022-11-30T03:41:29;16.40;1.00
3976;DHT22;2002;48.812;9.180;2022-11-30T03:43:55;16.50;1.00
3976;DHT22;2002;48.812;9.180;2022-11-30T03:46:21;16.50;1.00
3976;DHT22;2002;48.812;9.180;2022-11-30T03:48:46;16.40;1.00
3976;DHT22;2002;48.812;9.180;2022-11-30T03:51:12;16.40;1.00
3976;DHT22;2002;48.812;9.180;2022-11-30T03:53:38;16.40;1.00
3976;DHT22;2002;48.812;9.180;2022-11-30T03:56:06;16.50;1.00
3976;DHT22;2002;48.812;9.180;2022-11-30T03:58:33;16.50;1.00
3976;DHT22;2002;48.812;9.180;2022-11-30T04:03:29;16.50;1.00
3976;DHT22;2002;48.812;9.180;2022-11-30T04:05:55;16.50;1.00
3976;DHT22;2002;48.812;9.180;2022-11-30T04:08:21;16.50;1.00
3976;DHT22;2002;48.812;9.180;2022-11-30T04:10:49;16.50;1.00
3976;DHT22;2002;48.812;9.180;2022-11-30T04:13:15;16.50;1.00
3976;DHT22;2002;48.812;9.180;2022-11-30T04:15:40;16.50;1.00
3976;DHT22;2002;48.812;9.180;2022-11-30T04:18:06;16.50;1.00
3976;DHT22;2002;48.812;9.180;2022-11-30T04:20:31;16.50;1.00
3976;DHT22;2002;48.812;9.180;2022-11-30T04:22:57;16.50;1.00
3976;DHT22;2002;48.812;9.180;2022-11-30T04:25:23;16.50;1.00
3976;DHT22;2002;48.812;9.180;2022-11-30T04:27:48;16.50;1.00
3976;DHT22;2002;48.812;9.180;2022-11-30T04:30:15;16.50;1.00
3976;DHT22;2002;48.812;9.180;2022-11-30T04:32:41;16.50;1.00
3976;DHT22;2002;48.812;9.180;2022-11-30T04:35:06;16.50;1.00
3976;DHT22;2002;48.812;9.180;2022-11-30T04:37:32;16.50;1.00
3976;DHT22;2002;48.812;9.180;2022-11-30T04:39:58;16.50;1.00
3976;DHT22;2002;48.812;9.180;2022-11-30T04:42:23;16.50;1.00
3976;DHT22;2002;48.812;9.180;2022-11-30T04:44:49;16.50;1.00
3976;DHT22;2002;48.812;9.180;2022-11-30T04:47:14;16.50;1.00
3976;DHT22;2002;48.812;9.180;2022-11-30T04:49:40;16.50;1.00
3976;DHT22;2002;48.812;9.180;2022-11-30T04:52:05;16.40;1.00
3976;DHT22;2002;48.812;9.180;2022-11-30T04:54:31;16.40;1.00
3976;DHT22;2002;48.812;9.180;2022-11-30T04:56:56;16.50;1.00
3976;DHT22;2002;48.812;9.180;2022-11-30T04:59:22;16.40;1.00
3976;DHT22;2002;48.812;9.180;2022-11-30T05:01:47;16.50;1.00
3976;DHT22;2002;48.812;9.180;2022-11-30T05:04:13;16.40;1.00
3976;DHT22;2002;48.812;9.180;2022-11-30T05:06:39;16.40;1.00
3976;DHT22;2002;48.812;9.180;2022-11-30T05:09:04;16.40;1.00
3976;DHT22;2002;48.812;9.180;2022-11-30T05:11:30;16.50;8.90
3976;DHT22;2002;48.812;9.180;2022-11-30T05:13:55;16.50;1.00
3976;DHT22;2002;48.812;9.180;2022-11-30T05:16:21;16.50;1.00
3976;DHT22;2002;48.812;9.180;2022-11-30T05:18:46;16.60;1.00
3976;DHT22;2002;48.812;9.180;2022-11-30T05:21:12;16.60;1.00
3976;DHT22;2002;48.812;9.180;2022-11-30T05:23:38;16.70;1.00
3976;DHT22;2002;48.812;9.180;2022-11-30T05:26:03;16.70;1.00
3976;DHT22;2002;48.812;9.180;2022-11-30T05:28:29;16.70;1.00
3976;DHT22;2002;48.812;9.180;2022-11-30T05:30:55;16.70;1.00
3976;DHT22;2002;48.812;9.180;2022-11-30T05:33:20;16.70;1.00
3976;DHT22;2002;48.812;9.180;2022-11-30T05:35:46;16.70;1.00
3976;DHT22;2002;48.812;9.180;2022-11-30T05:38:11;16.70;1.00
3976;DHT22;2002;48.812;9.180;2022-11-30T05:40:37;16.80;1.00
3976;DHT22;2002;48.812;9.180;2022-11-30T05:43:03;16.80;1.00
3976;DHT22;2002;48.812;9.180;2022-11-30T05:45:29;16.80;1.00
3976;DHT22;2002;48.812;9.180;2022-11-30T05:47:55;16.70;1.00
3976;DHT22;2002;48.812;9.180;2022-11-30T05:50:20;16.70;1.00
3976;DHT22;2002;48.812;9.180;2022-11-30T05:52:46;16.70;1.00
3976;DHT22;2002;48.812;9.180;2022-11-30T05:55:12;16.80;1.00
3976;DHT22;2002;48.812;9.180;2022-11-30T05:57:38;16.80;1.00
3976;DHT22;2002;48.812;9.180;2022-11-30T06:00:06;16.80;1.00
3976;DHT22;2002;48.812;9.180;2022-11-30T06:02:32;16.80;1.00
3976;DHT22;2002;48.812;9.180;2022-11-30T06:04:58;16.80;1.00
3976;DHT22;2002;48.812;9.180;2022-11-30T06:07:24;16.80;1.00
3976;DHT22;2002;48.812;9.180;2022-11-30T06:09:49;16.80;1.00
3976;DHT22;2002;48.812;9.180;2022-11-30T06:12:15;16.80;1.00
3976;DHT22;2002;48.812;9.180;2022-11-30T06:14:40;16.80;1.00
3976;DHT22;2002;48.812;9.180;2022-11-30T06:17:06;16.80;1.00
3976;DHT22;2002;48.812;9.180;2022-11-30T06:19:32;16.80;1.00
3976;DHT22;2002;48.812;9.180;2022-11-30T06:21:57;16.80;1.00
3976;DHT22;2002;48.812;9.180;2022-11-30T06:24:23;16.80;1.00
3976;DHT22;2002;48.812;9.180;2022-11-30T06:26:48;16.80;1.00
3976;DHT22;2002;48.812;9.180;2022-11-30T06:29:14;16.80;1.00
3976;DHT22;2002;48.812;9.180;2022-11-30T06:31:39;16.80;1.00
3976;DHT22;2002;48.812;9.180;2022-11-30T06:34:05;16.80;1.00
3976;DHT22;2002;48.812;9.180;2022-11-30T06:36:30;16.80;1.00
3976;DHT22;2002;48.812;9.180;2022-11-30T06:38:56;16.90;1.00
3976;DHT22;2002;48.812;9.180;2022-11-30T06:41:22;16.90;1.00
3976;DHT22;2002;48.812;9.180;2022-11-30T06:43:47;16.80;7.20
3976;DHT22;2002;48.812;9.180;2022-11-30T06:46:13;16.80;1.00
3976;DHT22;2002;48.812;9.180;2022-11-30T06:48:39;16.80;7.80
3976;DHT22;2002;48.812;9.180;2022-11-30T06:51:06;16.80;1.00
3976;DHT22;2002;48.812;9.180;2022-11-30T06:53:32;16.80;1.00
3976;DHT22;2002;48.812;9.180;2022-11-30T06:55:58;16.80;1.00
3976;DHT22;2002;48.812;9.180;2022-11-30T06:58:23;16.80;1.00
3976;DHT22;2002;48.812;9.180;2022-11-30T07:00:49;16.80;1.00
3976;DHT22;2002;48.812;9.180;2022-11-30T07:03:14;16.80;1.00
3976;DHT22;2002;48.812;9.180;2022-11-30T07:05:42;16.90;1.00
3976;DHT22;2002;48.812;9.180;2022-11-30T07:08:09;16.90;1.00
3976;DHT22;2002;48.812;9.180;2022-11-30T07:10:41;16.90;1.00
3976;DHT22;2002;48.812;9.180;2022-11-30T07:13:15;16.90;1.00
3976;DHT22;2002;48.812;9.180;2022-11-30T07:15:41;16.90;6.30
3976;DHT22;2002;48.812;9.180;2022-11-30T07:18:08;16.90;1.00
3976;DHT22;2002;48.812;9.180;2022-11-30T07:20:34;16.90;1.00
3976;DHT22;2002;48.812;9.180;2022-11-30T07:23:00;16.90;1.00
3976;DHT22;2002;48.812;9.180;2022-11-30T07:25:48;16.90;1.00
3976;DHT22;2002;48.812;9.180;2022-11-30T07:28:40;16.90;1.00
3976;DHT22;2002;48.812;9.180;2022-11-30T07:31:14;16.90;1.00
3976;DHT22;2002;48.812;9.180;2022-11-30T07:33:39;16.90;6.70
3976;DHT22;2002;48.812;9.180;2022-11-30T07:36:06;16.90;1.00
3976;DHT22;2002;48.812;9.180;2022-11-30T07:38:32;16.90;1.00
3976;DHT22;2002;48.812;9.180;2022-11-30T07:40:58;16.90;1.00
3976;DHT22;2002;48.812;9.180;2022-11-30T07:43:23;16.90;1.00
3976;DHT22;2002;48.812;9.180;2022-11-30T07:45:52;17.00;1.00
3976;DHT22;2002;48.812;9.180;2022-11-30T07:48:18;17.00;1.00
3976;DHT22;2002;48.812;9.180;2022-11-30T07:50:45;17.10;1.00
3976;DHT22;2002;48.812;9.180;2022-11-30T07:53:11;17.10;1.00
3976;DHT22;2002;48.812;9.180;2022-11-30T07:55:36;17.00;1.00
3976;DHT22;2002;48.812;9.180;2022-11-30T07:58:02;17.00;1.00
3976;DHT22;2002;48.812;9.180;2022-11-30T08:00:27;16.90;1.00
3976;DHT22;2002;48.812;9.180;2022-11-30T08:02:53;16.90;1.00
3976;DHT22;2002;48.812;9.180;2022-11-30T08:05:18;16.90;1.00
3976;DHT22;2002;48.812;9.180;2022-11-30T08:07:44;16.90;1.00
3976;DHT22;2002;48.812;9.180;2022-11-30T08:10:12;16.90;1.00
3976;DHT22;2002;48.812;9.180;2022-11-30T08:12:38;16.90;1.00
3976;DHT22;2002;48.812;9.180;2022-11-30T08:15:04;16.90;1.00
3976;DHT22;2002;48.812;9.180;2022-11-30T08:17:29;16.90;1.00
3976;DHT22;2002;48.812;9.180;2022-11-30T08:19:55;16.90;1.00
3976;DHT22;2002;48.812;9.180;2022-11-30T08:22:21;16.90;1.00
3976;DHT22;2002;48.812;9.180;2022-11-30T08:24:46;16.90;1.00
3976;DHT22;2002;48.812;9.180;2022-11-30T08:27:12;17.00;1.00
3976;DHT22;2002;48.812;9.180;2022-11-30T08:29:37;16.90;1.00
3976;DHT22;2002;48.812;9.180;2022-11-30T08:32:03;16.90;1.00
3976;DHT22;2002;48.812;9.180;2022-11-30T08:34:29;16.90;1.00
3976;DHT22;2002;48.812;9.180;2022-11-30T08:36:54;16.90;1.00
3976;DHT22;2002;48.812;9.180;2022-11-30T08:39:20;16.80;1.00
3976;DHT22;2002;48.812;9.180;2022-11-30T08:41:45;16.80;1.00
3976;DHT22;2002;48.812;9.180;2022-11-30T08:44:11;16.90;1.00
3976;DHT22;2002;48.812;9.180;2022-11-30T08:46:36;16.90;1.00
3976;DHT22;2002;48.812;9.180;2022-11-30T08:49:03;16.90;1.00
3976;DHT22;2002;48.812;9.180;2022-11-30T08:51:28;16.90;1.00
3976;DHT22;2002;48.812;9.180;2022-11-30T08:53:54;16.90;1.00
3976;DHT22;2002;48.812;9.180;2022-11-30T08:56:20;16.90;1.00
3976;DHT22;2002;48.812;9.180;2022-11-30T08:58:48;16.90;1.00
3976;DHT22;2002;48.812;9.180;2022-11-30T09:01:22;16.90;1.00
3976;DHT22;2002;48.812;9.180;2022-11-30T09:03:51;16.90;1.00
3976;DHT22;2002;48.812;9.180;2022-11-30T09:06:18;16.90;1.00
3976;DHT22;2002;48.812;9.180;2022-11-30T09:08:47;16.90;1.00
3976;DHT22;2002;48.812;9.180;2022-11-30T09:11:30;16.90;1.00
3976;DHT22;2002;48.812;9.180;2022-11-30T09:13:58;16.90;1.00
3976;DHT22;2002;48.812;9.180;2022-11-30T09:16:24;16.90;1.00
3976;DHT22;2002;48.812;9.180;2022-11-30T09:18:51;16.90;1.00
3976;DHT22;2002;48.812;9.180;2022-11-30T09:21:22;16.90;1.00
3976;DHT22;2002;48.812;9.180;2022-11-30T09:23:48;17.00;1.00
3976;DHT22;2002;48.812;9.180;2022-11-30T09:26:18;16.90;1.00
3976;DHT22;2002;48.812;9.180;2022-11-30T09:28:45;16.90;1.00
3976;DHT22;2002;48.812;9.180;2022-11-30T09:31:13;16.90;1.00
3976;DHT22;2002;48.812;9.180;2022-11-30T09:33:39;16.90;1.00
3976;DHT22;2002;48.812;9.180;2022-11-30T09:36:07;16.90;1.00
3976;DHT22;2002;48.812;9.180;2022-11-30T09:38:33;16.90;1.00
3976;DHT22;2002;48.812;9.180;2022-11-30T09:41:24;16.90;1.00
3976;DHT22;2002;48.812;9.180;2022-11-30T09:46:27;16.90;1.00
3976;DHT22;2002;48.812;9.180;2022-11-30T09:49:14;16.90;1.00
3976;DHT22;2002;48.812;9.180;2022-11-30T09:51:48;16.90;1.00
3976;DHT22;2002;48.812;9.180;2022-11-30T09:54:16;16.90;1.00
3976;DHT22;2002;48.812;9.180;2022-11-30T09:56:43;16.90;1.00
3976;DHT22;2002;48.812;9.180;2022-11-30T09:59:29;16.90;1.00
3976;DHT22;2002;48.812;9.180;2022-11-30T10:01:59;16.90;1.00
3976;DHT22;2002;48.812;9.180;2022-11-30T10:04:28;16.90;1.00
3976;DHT22;2002;48.812;9.180;2022-11-30T10:12:20;16.90;1.00
3976;DHT22;2002;48.812;9.180;2022-11-30T10:28:50;16.90;1.00
3976;DHT22;2002;48.812;9.180;2022-11-30T10:31:17;16.90;1.00
3976;DHT22;2002;48.812;9.180;2022-11-30T10:33:51;16.90;1.00
3976;DHT22;2002;48.812;9.180;2022-11-30T10:36:35;16.80;1.00
3976;DHT22;2002;48.812;9.180;2022-11-30T10:39:05;16.90;1.00
3976;DHT22;2002;48.812;9.180;2022-11-30T10:41:43;16.90;1.00
3976;DHT22;2002;48.812;9.180;2022-11-30T10:44:16;16.90;1.00
3976;DHT22;2002;48.812;9.180;2022-11-30T10:46:52;16.90;1.00
3976;DHT22;2002;48.812;9.180;2022-11-30T10:49:19;16.90;1.00
3976;DHT22;2002;48.812;9.180;2022-11-30T10:51:52;16.90;1.00
3976;DHT22;2002;48.812;9.180;2022-11-30T10:54:22;16.90;1.00
3976;DHT22;2002;48.812;9.180;2022-11-30T10:56:48;16.90;1.00
3976;DHT22;2002;48.812;9.180;2022-11-30T10:59:18;17.00;1.00
3976;DHT22;2002;48.812;9.180;2022-11-30T11:01:46;16.90;1.00
3976;DHT22;2002;48.812;9.180;2022-11-30T11:06:57;16.90;1.00
3976;DHT22;2002;48.812;9.180;2022-11-30T11:09:32;16.90;1.00
3976;DHT22;2002;48.812;9.180;2022-11-30T11:12:20;16.90;1.00
3976;DHT22;2002;48.812;9.180;2022-11-30T11:14:45;16.90;1.00
3976;DHT22;2002;48.812;9.180;2022-11-30T11:19:45;16.90;1.00
3976;DHT22;2002;48.812;9.180;2022-11-30T11:22:19;16.90;1.00
3976;DHT22;2002;48.812;9.180;2022-11-30T11:24:47;16.90;1.00
3976;DHT22;2002;48.812;9.180;2022-11-30T11:27:39;16.90;1.00
3976;DHT22;2002;48.812;9.180;2022-11-30T11:35:38;17.00;1.00
3976;DHT22;2002;48.812;9.180;2022-11-30T11:38:26;16.90;1.00
3976;DHT22;2002;48.812;9.180;2022-11-30T11:43:23;16.90;1.00
3976;DHT22;2002;48.812;9.180;2022-11-30T11:45:52;16.90;1.00
3976;DHT22;2002;48.812;9.180;2022-11-30T11:51:09;16.90;1.00
3976;DHT22;2002;48.812;9.180;2022-11-30T11:53:54;16.90;1.00
3976;DHT22;2002;48.812;9.180;2022-11-30T11:56:33;16.90;1.00
3976;DHT22;2002;48.812;9.180;2022-11-30T12:04:38;16.90;1.00
3976;DHT22;2002;48.812;9.180;2022-11-30T12:07:41;16.90;1.00
3976;DHT22;2002;48.812;9.180;2022-11-30T12:12:49;17.00;1.00
3976;DHT22;2002;48.812;9.180;2022-11-30T12:15:14;16.90;1.00
3976;DHT22;2002;48.812;9.180;2022-11-30T12:17:52;16.90;1.00
3976;DHT22;2002;48.812;9.180;2022-11-30T12:24:02;16.90;1.00
3976;DHT22;2002;48.812;9.180;2022-11-30T12:37:40;16.90;1.00
3976;DHT22;2002;48.812;9.180;2022-11-30T12:43:10;16.90;1.00
3976;DHT22;2002;48.812;9.180;2022-11-30T12:45:42;16.90;1.00
3976;DHT22;2002;48.812;9.180;2022-11-30T12:53:52;16.90;1.00
3976;DHT22;2002;48.812;9.180;2022-11-30T12:56:43;16.90;1.00
3976;DHT22;2002;48.812;9.180;2022-11-30T13:04:32;16.90;1.00
3976;DHT22;2002;48.812;9.180;2022-11-30T13:07:10;16.90;1.00
3976;DHT22;2002;48.812;9.180;2022-11-30T13:09:56;16.90;1.00
3976;DHT22;2002;48.812;9.180;2022-11-30T13:12:43;16.90;1.00
3976;DHT22;2002;48.812;9.180;2022-11-30T13:15:21;16.90;1.00
3976;DHT22;2002;48.812;9.180;2022-11-30T13:17:48;16.90;1.00
3976;DHT22;2002;48.812;9.180;2022-11-30T13:23:09;17.00;1.00
3976;DHT22;2002;48.812;9.180;2022-11-30T13:25:52;17.00;1.00
3976;DHT22;2002;48.812;9.180;2022-11-30T13:28:24;17.00;1.00
3976;DHT22;2002;48.812;9.180;2022-11-30T13:31:13;16.90;1.00
3976;DHT22;2002;48.812;9.180;2022-11-30T13:44:43;17.00;1.00
3976;DHT22;2002;48.812;9.180;2022-11-30T13:47:30;17.00;1.00
3976;DHT22;2002;48.812;9.180;2022-11-30T13:50:00;17.00;1.00
3976;DHT22;2002;48.812;9.180;2022-11-30T14:02:56;17.00;1.00
3976;DHT22;2002;48.812;9.180;2022-11-30T14:05:37;17.00;1.00
3976;DHT22;2002;48.812;9.180;2022-11-30T14:10:39;16.90;1.00
3976;DHT22;2002;48.812;9.180;2022-11-30T14:25:54;16.90;1.00
3976;DHT22;2002;48.812;9.180;2022-11-30T14:28:24;17.00;1.00
3976;DHT22;2002;48.812;9.180;2022-11-30T14:30:54;16.90;1.00
3976;DHT22;2002;48.812;9.180;2022-11-30T14:33:34;16.90;1.00
3976;DHT22;2002;48.812;9.180;2022-11-30T14:36:02;16.90;1.00
3976;DHT22;2002;48.812;9.180;2022-11-30T14:38:31;16.90;1.00
3976;DHT22;2002;48.812;9.180;2022-11-30T14:41:02;16.90;1.00
3976;DHT22;2002;48.812;9.180;2022-11-30T14:43:27;16.90;1.00
3976;DHT22;2002;48.812;9.180;2022-11-30T14:48:22;16.90;1.00
3976;DHT22;2002;48.812;9.180;2022-11-30T14:50:57;16.90;1.00
3976;DHT22;2002;48.812;9.180;2022-11-30T15:01:54;16.90;1.00
3976;DHT22;2002;48.812;9.180;2022-11-30T15:04:21;16.90;1.00
3976;DHT22;2002;48.812;9.180;2022-11-30T15:06:46;16.90;1.00
3976;DHT22;2002;48.812;9.180;2022-11-30T15:09:15;16.90;1.00
3976;DHT22;2002;48.812;9.180;2022-11-30T15:11:44;16.90;1.00
3976;DHT22;2002;48.812;9.180;2022-11-30T15:14:11;16.90;1.00
3976;DHT22;2002;48.812;9.180;2022-11-30T15:16:37;17.00;1.00
3976;DHT22;2002;48.812;9.180;2022-11-30T15:19:31;17.00;1.00
3976;DHT22;2002;48.812;9.180;2022-11-30T15:21:57;16.90;1.00
3976;DHT22;2002;48.812;9.180;2022-11-30T15:24:24;17.00;7.60
3976;DHT22;2002;48.812;9.180;2022-11-30T15:27:05;17.00;1.00
3976;DHT22;2002;48.812;9.180;2022-11-30T15:29:34;17.00;1.00
3976;DHT22;2002;48.812;9.180;2022-11-30T15:32:04;17.00;1.00
3976;DHT22;2002;48.812;9.180;2022-11-30T15:34:43;16.90;1.00
3976;DHT22;2002;48.812;9.180;2022-11-30T15:37:11;16.90;1.00
3976;DHT22;2002;48.812;9.180;2022-11-30T15:39:37;16.90;1.00
3976;DHT22;2002;48.812;9.180;2022-11-30T15:42:04;16.90;1.00
3976;DHT22;2002;48.812;9.180;2022-11-30T15:44:43;16.90;1.00
3976;DHT22;2002;48.812;9.180;2022-11-30T15:47:41;16.90;1.00
3976;DHT22;2002;48.812;9.180;2022-11-30T15:52:52;16.90;1.00
3976;DHT22;2002;48.812;9.180;2022-11-30T15:55:44;16.90;1.00
3976;DHT22;2002;48.812;9.180;2022-11-30T15:58:40;16.90;1.00
3976;DHT22;2002;48.812;9.180;2022-11-30T16:01:19;16.90;1.00
3976;DHT22;2002;48.812;9.180;2022-11-30T16:03:59;16.90;1.00
3976;DHT22;2002;48.812;9.180;2022-11-30T16:06:28;16.90;1.00
3976;DHT22;2002;48.812;9.180;2022-11-30T16:08:54;16.90;1.00
3976;DHT22;2002;48.812;9.180;2022-11-30T16:11:20;16.90;1.00
3976;DHT22;2002;48.812;9.180;2022-11-30T16:13:46;16.90;1.00
3976;DHT22;2002;48.812;9.180;2022-11-30T16:16:16;16.90;1.00
3976;DHT22;2002;48.812;9.180;2022-11-30T16:18:46;16.90;1.00
3976;DHT22;2002;48.812;9.180;2022-11-30T16:21:14;16.90;1.00
3976;DHT22;2002;48.812;9.180;2022-11-30T16:23:41;16.90;1.00
3976;DHT22;2002;48.812;9.180;2022-11-30T16:26:11;16.80;1.00
3976;DHT22;2002;48.812;9.180;2022-11-30T16:28:37;16.90;1.00
3976;DHT22;2002;48.812;9.180;2022-11-30T16:31:03;16.80;1.00
3976;DHT22;2002;48.812;9.180;2022-11-30T16:33:29;16.80;1.00
3976;DHT22;2002;48.812;9.180;2022-11-30T16:35:58;16.80;1.00
3976;DHT22;2002;48.812;9.180;2022-11-30T16:38:25;16.80;1.00
3976;DHT22;2002;48.812;9.180;2022-11-30T16:40:51;16.80;1.00
3976;DHT22;2002;48.812;9.180;2022-11-30T16:43:21;16.90;1.00
3976;DHT22;2002;48.812;9.180;2022-11-30T16:45:47;16.80;1.00
3976;DHT22;2002;48.812;9.180;2022-11-30T16:48:15;16.80;1.00
3976;DHT22;2002;48.812;9.180;2022-11-30T16:50:40;16.80;1.00
3976;DHT22;2002;48.812;9.180;2022-11-30T16:53:11;16.80;1.00
3976;DHT22;2002;48.812;9.180;2022-11-30T16:55:39;16.80;1.00
3976;DHT22;2002;48.812;9.180;2022-11-30T16:58:05;16.80;1.00
3976;DHT22;2002;48.812;9.180;2022-11-30T17:00:30;16.90;1.00
3976;DHT22;2002;48.812;9.180;2022-11-30T17:05:40;16.80;1.00
3976;DHT22;2002;48.812;9.180;2022-11-30T17:08:07;16.90;1.00
3976;DHT22;2002;48.812;9.180;2022-11-30T17:10:33;16.90;1.00
3976;DHT22;2002;48.812;9.180;2022-11-30T17:12:58;17.00;1.00
3976;DHT22;2002;48.812;9.180;2022-11-30T17:15:24;17.20;1.00
3976;DHT22;2002;48.812;9.180;2022-11-30T17:17:50;17.10;1.00
3976;DHT22;2002;48.812;9.180;2022-11-30T17:20:16;17.10;1.00
3976;DHT22;2002;48.812;9.180;2022-11-30T17:22:43;17.20;1.00
3976;DHT22;2002;48.812;9.180;2022-11-30T17:25:14;17.20;1.00
3976;DHT22;2002;48.812;9.180;2022-11-30T17:27:40;17.30;1.00
3976;DHT22;2002;48.812;9.180;2022-11-30T17:30:06;17.20;1.00
3976;DHT22;2002;48.812;9.180;2022-11-30T17:32:32;17.30;1.00
3976;DHT22;2002;48.812;9.180;2022-11-30T17:34:58;17.30;1.00
3976;DHT22;2002;48.812;9.180;2022-11-30T17:37:23;17.20;1.00
3976;DHT22;2002;48.812;9.180;2022-11-30T17:39:49;17.30;1.00
3976;DHT22;2002;48.812;9.180;2022-11-30T17:42:14;17.30;1.00
3976;DHT22;2002;48.812;9.180;2022-11-30T17:44:40;17.30;1.00
3976;DHT22;2002;48.812;9.180;2022-11-30T17:47:07;17.20;1.00
3976;DHT22;2002;48.812;9.180;2022-11-30T17:49:32;17.20;1.00
3976;DHT22;2002;48.812;9.180;2022-11-30T17:51:58;17.30;1.00
3976;DHT22;2002;48.812;9.180;2022-11-30T17:54:23;17.20;1.00
3976;DHT22;2002;48.812;9.180;2022-11-30T17:56:49;17.30;1.00
3976;DHT22;2002;48.812;9.180;2022-11-30T17:59:17;17.30;1.00
3976;DHT22;2002;48.812;9.180;2022-11-30T18:01:43;17.30;1.00
3976;DHT22;2002;48.812;9.180;2022-11-30T18:04:09;17.20;1.00
3976;DHT22;2002;48.812;9.180;2022-11-30T18:06:34;17.20;1.00
3976;DHT22;2002;48.812;9.180;2022-11-30T18:09:00;17.10;1.00
3976;DHT22;2002;48.812;9.180;2022-11-30T18:11:25;17.20;1.00
3976;DHT22;2002;48.812;9.180;2022-11-30T18:13:53;17.20;1.00
3976;DHT22;2002;48.812;9.180;2022-11-30T18:16:27;17.20;1.00
3976;DHT22;2002;48.812;9.180;2022-11-30T18:18:55;17.10;1.00
3976;DHT22;2002;48.812;9.180;2022-11-30T18:21:22;17.20;1.00
3976;DHT22;2002;48.812;9.180;2022-11-30T18:23:49;17.10;1.00
3976;DHT22;2002;48.812;9.180;2022-11-30T18:26:23;17.10;1.00
3976;DHT22;2002;48.812;9.180;2022-11-30T18:28:55;17.10;1.00
3976;DHT22;2002;48.812;9.180;2022-11-30T18:31:21;17.20;1.00
3976;DHT22;2002;48.812;9.180;2022-11-30T18:33:47;17.10;1.00
3976;DHT22;2002;48.812;9.180;2022-11-30T18:36:12;17.20;1.00
3976;DHT22;2002;48.812;9.180;2022-11-30T18:38:38;17.10;1.00
3976;DHT22;2002;48.812;9.180;2022-11-30T18:41:06;17.10;1.00
3976;DHT22;2002;48.812;9.180;2022-11-30T18:43:32;17.10;1.00
3976;DHT22;2002;48.812;9.180;2022-11-30T18:46:06;17.10;1.00
3976;DHT22;2002;48.812;9.180;2022-11-30T18:48:32;17.10;1.00